sensor_id;sensor_type;location;lat;lon;timestamp;P1;durP1;ratioP1;P2;durP2;ratioP2
64959;SDS011;51487;52.266;10.542;2022-08-21T00:01:59;5.95;;;2.10;;
64959;SDS011;51487;52.266;10.542;2022-08-21T00:04:24;4.70;;;1.98;;
64959;SDS011;51487;52.266;10.542;2022-08-21T00:06:50;4.35;;;1.92;;
64959;SDS011;51487;52.266;10.542;2022-08-21T00:09:17;4.80;;;1.80;;
64959;SDS011;51487;52.266;10.542;2022-08-21T00:11:44;3.58;;;1.63;;
64959;SDS011;51487;52.266;10.542;2022-08-21T00:14:12;5.20;;;1.80;;
64959;SDS011;51487;52.266;10.542;2022-08-21T00:16:38;4.55;;;1.73;;
64959;SDS011;51487;52.266;10.542;2022-08-21T00:19:05;4.70;;;1.85;;
64959;SDS011;51487;52.266;10.542;2022-08-21T00:21:32;5.32;;;1.80;;
64959;SDS011;51487;52.266;10.542;2022-08-21T00:24:00;6.30;;;1.60;;
64959;SDS011;51487;52.266;10.542;2022-08-21T00:26:26;7.15;;;2.10;;
64959;SDS011;51487;52.266;10.542;2022-08-21T00:28:52;3.17;;;1.70;;
64959;SDS011;51487;52.266;10.542;2022-08-21T00:31:18;5.10;;;1.90;;
64959;SDS011;51487;52.266;10.542;2022-08-21T00:33:44;5.53;;;1.88;;
64959;SDS011;51487;52.266;10.542;2022-08-21T00:36:11;5.22;;;2.17;;
64959;SDS011;51487;52.266;10.542;2022-08-21T00:38:37;4.50;;;1.70;;
64959;SDS011;51487;52.266;10.542;2022-08-21T00:41:04;3.88;;;1.80;;
64959;SDS011;51487;52.266;10.542;2022-08-21T00:43:34;5.75;;;1.98;;
64959;SDS011;51487;52.266;10.542;2022-08-21T00:46:03;7.15;;;1.85;;
64959;SDS011;51487;52.266;10.542;2022-08-21T00:48:29;2.95;;;1.88;;
64959;SDS011;51487;52.266;10.542;2022-08-21T00:50:58;8.57;;;2.22;;
64959;SDS011;51487;52.266;10.542;2022-08-21T00:53:30;7.40;;;1.90;;
64959;SDS011;51487;52.266;10.542;2022-08-21T00:55:57;4.82;;;2.10;;
64959;SDS011;51487;52.266;10.542;2022-08-21T00:58:26;4.95;;;1.90;;
64959;SDS011;51487;52.266;10.542;2022-08-21T01:00:55;5.13;;;1.95;;
64959;SDS011;51487;52.266;10.542;2022-08-21T01:03:24;4.22;;;1.70;;
64959;SDS011;51487;52.266;10.542;2022-08-21T01:05:51;7.78;;;1.90;;
64959;SDS011;51487;52.266;10.542;2022-08-21T01:08:17;6.25;;;1.92;;
64959;SDS011;51487;52.266;10.542;2022-08-21T01:10:45;6.70;;;2.10;;
64959;SDS011;51487;52.266;10.542;2022-08-21T01:13:13;5.97;;;1.88;;
64959;SDS011;51487;52.266;10.542;2022-08-21T01:15:42;7.43;;;2.35;;
64959;SDS011;51487;52.266;10.542;2022-08-21T01:18:13;6.03;;;2.08;;
64959;SDS011;51487;52.266;10.542;2022-08-21T01:20:43;3.28;;;1.65;;
64959;SDS011;51487;52.266;10.542;2022-08-21T01:23:26;5.65;;;2.38;;
64959;SDS011;51487;52.266;10.542;2022-08-21T01:25:51;6.45;;;2.30;;
64959;SDS011;51487;52.266;10.542;2022-08-21T01:28:17;4.45;;;1.90;;
64959;SDS011;51487;52.266;10.542;2022-08-21T01:30:44;5.53;;;2.00;;
64959;SDS011;51487;52.266;10.542;2022-08-21T01:33:10;5.13;;;1.95;;
64959;SDS011;51487;52.266;10.542;2022-08-21T01:35:36;7.35;;;2.92;;
64959;SDS011;51487;52.266;10.542;2022-08-21T01:38:02;6.40;;;2.25;;
64959;SDS011;51487;52.266;10.542;2022-08-21T01:40:28;8.27;;;2.22;;
64959;SDS011;51487;52.266;10.542;2022-08-21T01:42:54;7.57;;;2.28;;
64959;SDS011;51487;52.266;10.542;2022-08-21T01:45:19;6.32;;;2.20;;
64959;SDS011;51487;52.266;10.542;2022-08-21T01:47:45;4.90;;;2.20;;
64959;SDS011;51487;52.266;10.542;2022-08-21T01:50:13;7.82;;;2.28;;
64959;SDS011;51487;52.266;10.542;2022-08-21T01:52:42;5.88;;;2.25;;
64959;SDS011;51487;52.266;10.542;2022-08-21T01:55:08;5.53;;;2.10;;
64959;SDS011;51487;52.266;10.542;2022-08-21T01:57:36;5.95;;;2.40;;
64959;SDS011;51487;52.266;10.542;2022-08-21T02:00:07;5.70;;;2.20;;
64959;SDS011;51487;52.266;10.542;2022-08-21T02:02:37;4.82;;;2.10;;
64959;SDS011;51487;52.266;10.542;2022-08-21T02:05:06;13.25;;;2.75;;
64959;SDS011;51487;52.266;10.542;2022-08-21T02:07:37;4.22;;;2.20;;
64959;SDS011;51487;52.266;10.542;2022-08-21T02:10:11;5.13;;;1.88;;
64959;SDS011;51487;52.266;10.542;2022-08-21T02:12:40;5.80;;;2.17;;
64959;SDS011;51487;52.266;10.542;2022-08-21T02:15:06;6.32;;;2.30;;
64959;SDS011;51487;52.266;10.542;2022-08-21T02:17:40;5.28;;;2.17;;
64959;SDS011;51487;52.266;10.542;2022-08-21T02:20:11;6.07;;;2.05;;
64959;SDS011;51487;52.266;10.542;2022-08-21T02:22:46;4.82;;;1.92;;
64959;SDS011;51487;52.266;10.542;2022-08-21T02:25:12;4.15;;;1.70;;
64959;SDS011;51487;52.266;10.542;2022-08-21T02:27:39;7.20;;;2.60;;
64959;SDS011;51487;52.266;10.542;2022-08-21T02:30:12;5.32;;;1.88;;
64959;SDS011;51487;52.266;10.542;2022-08-21T02:32:46;4.07;;;2.00;;
64959;SDS011;51487;52.266;10.542;2022-08-21T02:35:11;6.85;;;2.00;;
64959;SDS011;51487;52.266;10.542;2022-08-21T02:37:44;5.45;;;2.17;;
64959;SDS011;51487;52.266;10.542;2022-08-21T02:40:19;4.45;;;2.10;;
64959;SDS011;51487;52.266;10.542;2022-08-21T02:42:48;5.25;;;2.22;;
64959;SDS011;51487;52.266;10.542;2022-08-21T02:45:14;4.53;;;2.05;;
64959;SDS011;51487;52.266;10.542;2022-08-21T02:47:54;5.28;;;2.10;;
64959;SDS011;51487;52.266;10.542;2022-08-21T02:50:27;4.30;;;1.83;;
64959;SDS011;51487;52.266;10.542;2022-08-21T02:53:21;5.40;;;2.10;;
64959;SDS011;51487;52.266;10.542;2022-08-21T02:55:48;5.75;;;1.90;;
64959;SDS011;51487;52.266;10.542;2022-08-21T02:58:16;4.65;;;2.00;;
64959;SDS011;51487;52.266;10.542;2022-08-21T03:00:49;4.20;;;1.90;;
64959;SDS011;51487;52.266;10.542;2022-08-21T03:03:14;3.33;;;1.90;;
64959;SDS011;51487;52.266;10.542;2022-08-21T03:05:41;4.72;;;2.10;;
64959;SDS011;51487;52.266;10.542;2022-08-21T03:08:09;6.22;;;2.20;;
64959;SDS011;51487;52.266;10.542;2022-08-21T03:10:37;9.77;;;2.13;;
64959;SDS011;51487;52.266;10.542;2022-08-21T03:13:07;5.78;;;2.10;;
64959;SDS011;51487;52.266;10.542;2022-08-21T03:15:33;8.30;;;2.00;;
64959;SDS011;51487;52.266;10.542;2022-08-21T03:17:59;4.20;;;2.10;;
64959;SDS011;51487;52.266;10.542;2022-08-21T03:20:26;4.68;;;2.00;;
64959;SDS011;51487;52.266;10.542;2022-08-21T03:22:54;4.75;;;2.10;;
64959;SDS011;51487;52.266;10.542;2022-08-21T03:25:20;4.38;;;2.08;;
64959;SDS011;51487;52.266;10.542;2022-08-21T03:27:48;5.35;;;2.13;;
64959;SDS011;51487;52.266;10.542;2022-08-21T03:30:14;4.47;;;1.77;;
64959;SDS011;51487;52.266;10.542;2022-08-21T03:32:41;2.42;;;1.80;;
64959;SDS011;51487;52.266;10.542;2022-08-21T03:35:07;3.45;;;2.05;;
64959;SDS011;51487;52.266;10.542;2022-08-21T03:37:34;3.85;;;2.08;;
64959;SDS011;51487;52.266;10.542;2022-08-21T03:40:02;5.07;;;2.08;;
64959;SDS011;51487;52.266;10.542;2022-08-21T03:42:30;2.90;;;1.80;;
64959;SDS011;51487;52.266;10.542;2022-08-21T03:44:55;8.40;;;1.90;;
64959;SDS011;51487;52.266;10.542;2022-08-21T03:47:21;4.18;;;2.10;;
64959;SDS011;51487;52.266;10.542;2022-08-21T03:49:47;3.83;;;2.15;;
64959;SDS011;51487;52.266;10.542;2022-08-21T03:52:13;3.20;;;2.08;;
64959;SDS011;51487;52.266;10.542;2022-08-21T03:54:39;5.20;;;2.50;;
64959;SDS011;51487;52.266;10.542;2022-08-21T03:57:06;5.57;;;2.35;;
64959;SDS011;51487;52.266;10.542;2022-08-21T03:59:33;7.70;;;2.40;;
64959;SDS011;51487;52.266;10.542;2022-08-21T04:02:00;4.72;;;2.30;;
64959;SDS011;51487;52.266;10.542;2022-08-21T04:04:28;5.85;;;2.25;;
64959;SDS011;51487;52.266;10.542;2022-08-21T04:06:54;3.65;;;2.00;;
64959;SDS011;51487;52.266;10.542;2022-08-21T04:09:21;3.08;;;2.17;;
64959;SDS011;51487;52.266;10.542;2022-08-21T04:11:48;3.75;;;1.90;;
64959;SDS011;51487;52.266;10.542;2022-08-21T04:14:14;4.88;;;2.00;;
64959;SDS011;51487;52.266;10.542;2022-08-21T04:16:40;3.75;;;1.98;;
64959;SDS011;51487;52.266;10.542;2022-08-21T04:19:08;7.80;;;2.10;;
64959;SDS011;51487;52.266;10.542;2022-08-21T04:21:37;3.50;;;1.98;;
64959;SDS011;51487;52.266;10.542;2022-08-21T04:24:05;6.90;;;2.20;;
64959;SDS011;51487;52.266;10.542;2022-08-21T04:26:34;6.53;;;1.90;;
64959;SDS011;51487;52.266;10.542;2022-08-21T04:29:01;5.80;;;2.30;;
64959;SDS011;51487;52.266;10.542;2022-08-21T04:31:27;4.80;;;2.10;;
64959;SDS011;51487;52.266;10.542;2022-08-21T04:33:53;4.53;;;2.25;;
64959;SDS011;51487;52.266;10.542;2022-08-21T04:36:21;6.95;;;2.20;;
64959;SDS011;51487;52.266;10.542;2022-08-21T04:38:47;4.47;;;1.88;;
64959;SDS011;51487;52.266;10.542;2022-08-21T04:41:13;3.80;;;1.92;;
64959;SDS011;51487;52.266;10.542;2022-08-21T04:43:39;3.22;;;1.83;;
64959;SDS011;51487;52.266;10.542;2022-08-21T04:46:05;3.85;;;2.10;;
64959;SDS011;51487;52.266;10.542;2022-08-21T04:48:31;6.38;;;1.92;;
64959;SDS011;51487;52.266;10.542;2022-08-21T04:51:07;4.38;;;2.00;;
64959;SDS011;51487;52.266;10.542;2022-08-21T04:53:41;3.08;;;2.03;;
64959;SDS011;51487;52.266;10.542;2022-08-21T04:58:52;5.32;;;2.00;;
64959;SDS011;51487;52.266;10.542;2022-08-21T05:01:22;4.47;;;1.85;;
64959;SDS011;51487;52.266;10.542;2022-08-21T05:03:53;5.72;;;2.05;;
64959;SDS011;51487;52.266;10.542;2022-08-21T05:06:23;7.00;;;2.13;;
64959;SDS011;51487;52.266;10.542;2022-08-21T05:08:50;4.75;;;2.00;;
64959;SDS011;51487;52.266;10.542;2022-08-21T05:11:20;4.85;;;2.33;;
64959;SDS011;51487;52.266;10.542;2022-08-21T05:13:47;5.35;;;2.17;;
64959;SDS011;51487;52.266;10.542;2022-08-21T05:16:14;5.65;;;2.20;;
64959;SDS011;51487;52.266;10.542;2022-08-21T05:18:41;5.28;;;2.30;;
64959;SDS011;51487;52.266;10.542;2022-08-21T05:21:07;5.13;;;2.45;;
64959;SDS011;51487;52.266;10.542;2022-08-21T05:23:34;7.75;;;2.30;;
64959;SDS011;51487;52.266;10.542;2022-08-21T05:26:00;6.13;;;2.50;;
64959;SDS011;51487;52.266;10.542;2022-08-21T05:28:26;5.38;;;2.10;;
64959;SDS011;51487;52.266;10.542;2022-08-21T05:30:52;6.95;;;2.30;;
64959;SDS011;51487;52.266;10.542;2022-08-21T05:33:18;5.68;;;2.10;;
64959;SDS011;51487;52.266;10.542;2022-08-21T05:35:44;6.45;;;2.13;;
64959;SDS011;51487;52.266;10.542;2022-08-21T05:38:10;4.60;;;1.83;;
64959;SDS011;51487;52.266;10.542;2022-08-21T05:40:36;3.83;;;2.05;;
64959;SDS011;51487;52.266;10.542;2022-08-21T05:43:02;4.53;;;1.70;;
64959;SDS011;51487;52.266;10.542;2022-08-21T05:45:29;3.90;;;1.70;;
64959;SDS011;51487;52.266;10.542;2022-08-21T05:47:57;2.50;;;1.85;;
64959;SDS011;51487;52.266;10.542;2022-08-21T05:50:29;4.45;;;1.90;;
64959;SDS011;51487;52.266;10.542;2022-08-21T05:52:56;5.03;;;2.13;;
64959;SDS011;51487;52.266;10.542;2022-08-21T05:55:21;4.03;;;1.90;;
64959;SDS011;51487;52.266;10.542;2022-08-21T05:57:47;3.22;;;2.05;;
64959;SDS011;51487;52.266;10.542;2022-08-21T06:00:13;5.15;;;2.00;;
64959;SDS011;51487;52.266;10.542;2022-08-21T06:02:39;5.70;;;1.90;;
64959;SDS011;51487;52.266;10.542;2022-08-21T06:05:06;5.85;;;1.90;;
64959;SDS011;51487;52.266;10.542;2022-08-21T06:07:32;3.55;;;1.95;;
64959;SDS011;51487;52.266;10.542;2022-08-21T06:09:58;6.00;;;2.15;;
64959;SDS011;51487;52.266;10.542;2022-08-21T06:12:25;5.53;;;2.13;;
64959;SDS011;51487;52.266;10.542;2022-08-21T06:14:50;4.70;;;2.28;;
64959;SDS011;51487;52.266;10.542;2022-08-21T06:17:17;4.43;;;2.00;;
64959;SDS011;51487;52.266;10.542;2022-08-21T06:19:43;3.50;;;1.88;;
64959;SDS011;51487;52.266;10.542;2022-08-21T06:22:09;4.80;;;1.90;;
64959;SDS011;51487;52.266;10.542;2022-08-21T06:24:34;5.32;;;1.98;;
64959;SDS011;51487;52.266;10.542;2022-08-21T06:27:05;3.42;;;1.95;;
64959;SDS011;51487;52.266;10.542;2022-08-21T06:29:32;4.00;;;2.25;;
64959;SDS011;51487;52.266;10.542;2022-08-21T06:31:59;7.05;;;2.35;;
64959;SDS011;51487;52.266;10.542;2022-08-21T06:34:25;2.88;;;2.10;;
64959;SDS011;51487;52.266;10.542;2022-08-21T06:36:51;2.85;;;2.25;;
64959;SDS011;51487;52.266;10.542;2022-08-21T06:39:17;6.90;;;2.20;;
64959;SDS011;51487;52.266;10.542;2022-08-21T06:41:42;4.28;;;1.90;;
64959;SDS011;51487;52.266;10.542;2022-08-21T06:44:08;3.95;;;2.20;;
64959;SDS011;51487;52.266;10.542;2022-08-21T06:46:34;3.92;;;1.98;;
64959;SDS011;51487;52.266;10.542;2022-08-21T06:48:59;5.10;;;1.85;;
64959;SDS011;51487;52.266;10.542;2022-08-21T06:51:25;3.78;;;1.90;;
64959;SDS011;51487;52.266;10.542;2022-08-21T06:53:52;4.68;;;2.20;;
64959;SDS011;51487;52.266;10.542;2022-08-21T06:56:18;3.78;;;2.42;;
64959;SDS011;51487;52.266;10.542;2022-08-21T06:58:44;4.90;;;2.03;;
64959;SDS011;51487;52.266;10.542;2022-08-21T07:01:09;3.22;;;1.98;;
64959;SDS011;51487;52.266;10.542;2022-08-21T07:03:36;5.65;;;2.25;;
64959;SDS011;51487;52.266;10.542;2022-08-21T07:06:06;5.22;;;2.15;;
64959;SDS011;51487;52.266;10.542;2022-08-21T07:08:35;7.32;;;2.90;;
64959;SDS011;51487;52.266;10.542;2022-08-21T07:11:04;3.38;;;1.73;;
64959;SDS011;51487;52.266;10.542;2022-08-21T07:13:52;6.28;;;2.40;;
64959;SDS011;51487;52.266;10.542;2022-08-21T07:16:19;4.13;;;2.45;;
64959;SDS011;51487;52.266;10.542;2022-08-21T07:18:46;4.85;;;2.25;;
64959;SDS011;51487;52.266;10.542;2022-08-21T07:21:12;3.58;;;2.60;;
64959;SDS011;51487;52.266;10.542;2022-08-21T07:23:39;4.30;;;2.50;;
64959;SDS011;51487;52.266;10.542;2022-08-21T07:26:10;4.07;;;2.47;;
64959;SDS011;51487;52.266;10.542;2022-08-21T07:28:42;4.50;;;2.90;;
64959;SDS011;51487;52.266;10.542;2022-08-21T07:31:09;3.28;;;2.30;;
64959;SDS011;51487;52.266;10.542;2022-08-21T07:33:38;5.20;;;2.80;;
64959;SDS011;51487;52.266;10.542;2022-08-21T07:36:05;4.20;;;2.20;;
64959;SDS011;51487;52.266;10.542;2022-08-21T07:38:31;4.45;;;2.38;;
64959;SDS011;51487;52.266;10.542;2022-08-21T07:40:57;3.15;;;2.15;;
64959;SDS011;51487;52.266;10.542;2022-08-21T07:43:26;4.45;;;1.77;;
64959;SDS011;51487;52.266;10.542;2022-08-21T07:45:53;4.50;;;2.08;;
64959;SDS011;51487;52.266;10.542;2022-08-21T07:48:19;4.22;;;2.13;;
64959;SDS011;51487;52.266;10.542;2022-08-21T07:50:47;5.43;;;2.17;;
64959;SDS011;51487;52.266;10.542;2022-08-21T07:53:14;6.38;;;2.10;;
64959;SDS011;51487;52.266;10.542;2022-08-21T07:55:40;5.32;;;1.98;;
64959;SDS011;51487;52.266;10.542;2022-08-21T07:58:06;4.60;;;1.90;;
64959;SDS011;51487;52.266;10.542;2022-08-21T08:00:32;3.78;;;1.80;;
64959;SDS011;51487;52.266;10.542;2022-08-21T08:02:58;7.32;;;2.10;;
64959;SDS011;51487;52.266;10.542;2022-08-21T08:05:25;4.07;;;1.73;;
64959;SDS011;51487;52.266;10.542;2022-08-21T08:07:54;4.93;;;1.75;;
64959;SDS011;51487;52.266;10.542;2022-08-21T08:10:20;2.58;;;1.30;;
64959;SDS011;51487;52.266;10.542;2022-08-21T08:12:48;4.80;;;1.52;;
64959;SDS011;51487;52.266;10.542;2022-08-21T08:15:17;2.55;;;1.60;;
64959;SDS011;51487;52.266;10.542;2022-08-21T08:17:46;5.00;;;1.48;;
64959;SDS011;51487;52.266;10.542;2022-08-21T08:20:13;3.78;;;1.48;;
64959;SDS011;51487;52.266;10.542;2022-08-21T08:22:41;3.92;;;1.92;;
64959;SDS011;51487;52.266;10.542;2022-08-21T08:25:08;4.30;;;1.85;;
64959;SDS011;51487;52.266;10.542;2022-08-21T08:27:36;4.80;;;1.90;;
64959;SDS011;51487;52.266;10.542;2022-08-21T08:30:03;4.00;;;2.00;;
64959;SDS011;51487;52.266;10.542;2022-08-21T08:32:32;3.67;;;1.70;;
64959;SDS011;51487;52.266;10.542;2022-08-21T08:34:58;3.53;;;1.80;;
64959;SDS011;51487;52.266;10.542;2022-08-21T08:37:24;5.47;;;1.80;;
64959;SDS011;51487;52.266;10.542;2022-08-21T08:39:50;3.40;;;1.63;;
64959;SDS011;51487;52.266;10.542;2022-08-21T08:42:17;3.47;;;1.75;;
64959;SDS011;51487;52.266;10.542;2022-08-21T08:44:56;4.75;;;1.70;;
64959;SDS011;51487;52.266;10.542;2022-08-21T08:47:28;3.97;;;1.85;;
64959;SDS011;51487;52.266;10.542;2022-08-21T08:55:28;5.30;;;1.90;;
64959;SDS011;51487;52.266;10.542;2022-08-21T08:58:02;6.78;;;2.42;;
64959;SDS011;51487;52.266;10.542;2022-08-21T09:00:29;4.50;;;2.33;;
64959;SDS011;51487;52.266;10.542;2022-08-21T09:02:57;6.45;;;2.28;;
64959;SDS011;51487;52.266;10.542;2022-08-21T09:05:27;7.30;;;2.17;;
64959;SDS011;51487;52.266;10.542;2022-08-21T09:08:14;5.45;;;1.92;;
64959;SDS011;51487;52.266;10.542;2022-08-21T09:11:26;4.88;;;2.50;;
64959;SDS011;51487;52.266;10.542;2022-08-21T09:27:44;4.35;;;2.30;;
64959;SDS011;51487;52.266;10.542;2022-08-21T09:30:10;7.88;;;2.55;;
64959;SDS011;51487;52.266;10.542;2022-08-21T09:32:37;5.78;;;2.50;;
64959;SDS011;51487;52.266;10.542;2022-08-21T09:40:44;8.70;;;2.50;;
64959;SDS011;51487;52.266;10.542;2022-08-21T09:45:46;7.43;;;2.33;;
64959;SDS011;51487;52.266;10.542;2022-08-21T09:48:21;8.65;;;2.65;;
64959;SDS011;51487;52.266;10.542;2022-08-21T09:50:50;8.65;;;3.03;;
64959;SDS011;51487;52.266;10.542;2022-08-21T09:58:42;6.05;;;2.50;;
64959;SDS011;51487;52.266;10.542;2022-08-21T10:01:13;6.57;;;2.42;;
64959;SDS011;51487;52.266;10.542;2022-08-21T10:03:46;9.98;;;2.90;;
64959;SDS011;51487;52.266;10.542;2022-08-21T10:06:23;10.20;;;3.53;;
64959;SDS011;51487;52.266;10.542;2022-08-21T10:14:41;9.23;;;2.63;;
64959;SDS011;51487;52.266;10.542;2022-08-21T10:20:22;6.35;;;2.25;;
64959;SDS011;51487;52.266;10.542;2022-08-21T10:34:18;4.72;;;2.17;;
64959;SDS011;51487;52.266;10.542;2022-08-21T10:37:25;8.40;;;2.15;;
64959;SDS011;51487;52.266;10.542;2022-08-21T10:42:47;4.55;;;2.08;;
64959;SDS011;51487;52.266;10.542;2022-08-21T10:48:24;5.53;;;2.13;;
64959;SDS011;51487;52.266;10.542;2022-08-21T10:51:32;6.97;;;2.13;;
64959;SDS011;51487;52.266;10.542;2022-08-21T10:57:02;5.32;;;2.00;;
64959;SDS011;51487;52.266;10.542;2022-08-21T10:59:42;8.80;;;2.35;;
64959;SDS011;51487;52.266;10.542;2022-08-21T11:02:22;5.03;;;2.15;;
64959;SDS011;51487;52.266;10.542;2022-08-21T11:08:26;9.55;;;2.30;;
64959;SDS011;51487;52.266;10.542;2022-08-21T11:11:22;7.57;;;2.40;;
64959;SDS011;51487;52.266;10.542;2022-08-21T11:13:59;14.57;;;3.85;;
64959;SDS011;51487;52.266;10.542;2022-08-21T11:16:42;9.82;;;2.50;;
64959;SDS011;51487;52.266;10.542;2022-08-21T11:19:19;8.80;;;2.65;;
64959;SDS011;51487;52.266;10.542;2022-08-21T11:27:23;7.00;;;2.65;;
64959;SDS011;51487;52.266;10.542;2022-08-21T11:30:12;7.50;;;2.42;;
64959;SDS011;51487;52.266;10.542;2022-08-21T11:36:00;7.70;;;2.20;;
64959;SDS011;51487;52.266;10.542;2022-08-21T11:39:41;7.13;;;2.20;;
64959;SDS011;51487;52.266;10.542;2022-08-21T11:42:15;5.88;;;2.00;;
64959;SDS011;51487;52.266;10.542;2022-08-21T11:50:28;5.03;;;2.00;;
64959;SDS011;51487;52.266;10.542;2022-08-21T11:55:47;6.20;;;2.15;;
64959;SDS011;51487;52.266;10.542;2022-08-21T11:58:32;5.32;;;1.80;;
64959;SDS011;51487;52.266;10.542;2022-08-21T12:01:14;6.95;;;2.20;;
64959;SDS011;51487;52.266;10.542;2022-08-21T12:03:55;4.80;;;1.90;;
64959;SDS011;51487;52.266;10.542;2022-08-21T12:06:30;9.75;;;2.42;;
64959;SDS011;51487;52.266;10.542;2022-08-21T12:09:07;5.65;;;1.90;;
64959;SDS011;51487;52.266;10.542;2022-08-21T12:24:02;3.40;;;1.60;;
64959;SDS011;51487;52.266;10.542;2022-08-21T12:26:49;3.90;;;2.00;;
64959;SDS011;51487;52.266;10.542;2022-08-21T12:29:39;5.18;;;2.03;;
64959;SDS011;51487;52.266;10.542;2022-08-21T12:34:40;4.57;;;1.60;;
64959;SDS011;51487;52.266;10.542;2022-08-21T12:39:57;2.85;;;1.58;;
64959;SDS011;51487;52.266;10.542;2022-08-21T12:42:30;7.25;;;1.52;;
64959;SDS011;51487;52.266;10.542;2022-08-21T12:50:53;3.40;;;1.60;;
64959;SDS011;51487;52.266;10.542;2022-08-21T12:53:45;5.40;;;1.40;;
64959;SDS011;51487;52.266;10.542;2022-08-21T12:56:19;4.63;;;1.52;;
64959;SDS011;51487;52.266;10.542;2022-08-21T12:58:53;4.18;;;1.70;;
64959;SDS011;51487;52.266;10.542;2022-08-21T13:04:16;3.13;;;1.60;;
64959;SDS011;51487;52.266;10.542;2022-08-21T13:06:49;5.43;;;1.85;;
64959;SDS011;51487;52.266;10.542;2022-08-21T13:09:25;6.72;;;1.40;;
64959;SDS011;51487;52.266;10.542;2022-08-21T13:11:54;4.78;;;1.60;;
64959;SDS011;51487;52.266;10.542;2022-08-21T13:17:05;4.10;;;1.40;;
64959;SDS011;51487;52.266;10.542;2022-08-21T13:19:32;3.38;;;1.50;;
64959;SDS011;51487;52.266;10.542;2022-08-21T13:21:59;3.60;;;1.35;;
64959;SDS011;51487;52.266;10.542;2022-08-21T13:24:31;2.92;;;1.40;;
64959;SDS011;51487;52.266;10.542;2022-08-21T13:27:00;2.80;;;1.33;;
64959;SDS011;51487;52.266;10.542;2022-08-21T13:29:28;5.47;;;1.50;;
64959;SDS011;51487;52.266;10.542;2022-08-21T13:31:59;4.20;;;1.65;;
64959;SDS011;51487;52.266;10.542;2022-08-21T13:34:33;5.55;;;1.80;;
64959;SDS011;51487;52.266;10.542;2022-08-21T13:37:04;3.25;;;1.60;;
64959;SDS011;51487;52.266;10.542;2022-08-21T13:39:33;3.90;;;1.67;;
64959;SDS011;51487;52.266;10.542;2022-08-21T13:42:00;2.95;;;1.38;;
64959;SDS011;51487;52.266;10.542;2022-08-21T13:44:36;2.67;;;1.27;;
64959;SDS011;51487;52.266;10.542;2022-08-21T13:47:10;4.88;;;1.30;;
64959;SDS011;51487;52.266;10.542;2022-08-21T13:49:47;2.17;;;1.30;;
64959;SDS011;51487;52.266;10.542;2022-08-21T13:52:21;3.50;;;1.40;;
64959;SDS011;51487;52.266;10.542;2022-08-21T13:55:06;6.32;;;1.67;;
64959;SDS011;51487;52.266;10.542;2022-08-21T13:57:41;3.58;;;1.40;;
64959;SDS011;51487;52.266;10.542;2022-08-21T14:02:44;3.65;;;1.50;;
64959;SDS011;51487;52.266;10.542;2022-08-21T14:05:21;3.20;;;1.30;;
64959;SDS011;51487;52.266;10.542;2022-08-21T14:07:56;3.58;;;1.40;;
64959;SDS011;51487;52.266;10.542;2022-08-21T14:10:34;5.45;;;1.48;;
64959;SDS011;51487;52.266;10.542;2022-08-21T14:13:07;4.05;;;1.30;;
64959;SDS011;51487;52.266;10.542;2022-08-21T14:15:46;4.57;;;1.73;;
64959;SDS011;51487;52.266;10.542;2022-08-21T14:18:22;2.38;;;1.30;;
64959;SDS011;51487;52.266;10.542;2022-08-21T14:20:50;3.70;;;1.30;;
64959;SDS011;51487;52.266;10.542;2022-08-21T14:23:26;4.95;;;1.40;;
64959;SDS011;51487;52.266;10.542;2022-08-21T14:25:52;2.15;;;1.20;;
64959;SDS011;51487;52.266;10.542;2022-08-21T14:28:26;3.72;;;1.25;;
64959;SDS011;51487;52.266;10.542;2022-08-21T14:30:57;3.50;;;1.45;;
64959;SDS011;51487;52.266;10.542;2022-08-21T14:33:35;5.90;;;1.33;;
64959;SDS011;51487;52.266;10.542;2022-08-21T14:36:00;6.47;;;1.80;;
64959;SDS011;51487;52.266;10.542;2022-08-21T14:38:27;3.67;;;1.25;;
64959;SDS011;51487;52.266;10.542;2022-08-21T14:40:54;2.70;;;1.35;;
64959;SDS011;51487;52.266;10.542;2022-08-21T14:43:25;2.97;;;1.30;;
64959;SDS011;51487;52.266;10.542;2022-08-21T14:45:52;7.35;;;1.40;;
64959;SDS011;51487;52.266;10.542;2022-08-21T14:48:19;2.67;;;1.42;;
64959;SDS011;51487;52.266;10.542;2022-08-21T14:50:44;5.78;;;1.58;;
64959;SDS011;51487;52.266;10.542;2022-08-21T14:53:10;2.58;;;1.10;;
64959;SDS011;51487;52.266;10.542;2022-08-21T14:55:36;6.00;;;1.40;;
64959;SDS011;51487;52.266;10.542;2022-08-21T14:58:22;4.05;;;1.63;;
64959;SDS011;51487;52.266;10.542;2022-08-21T15:00:50;2.63;;;1.58;;
64959;SDS011;51487;52.266;10.542;2022-08-21T15:03:18;3.28;;;1.70;;
64959;SDS011;51487;52.266;10.542;2022-08-21T15:05:44;2.83;;;1.40;;
64959;SDS011;51487;52.266;10.542;2022-08-21T15:08:09;2.20;;;1.42;;
64959;SDS011;51487;52.266;10.542;2022-08-21T15:10:35;4.82;;;1.58;;
64959;SDS011;51487;52.266;10.542;2022-08-21T15:13:01;3.00;;;1.40;;
64959;SDS011;51487;52.266;10.542;2022-08-21T15:15:30;2.53;;;1.30;;
64959;SDS011;51487;52.266;10.542;2022-08-21T15:18:04;2.88;;;1.40;;
64959;SDS011;51487;52.266;10.542;2022-08-21T15:20:30;3.60;;;1.42;;
64959;SDS011;51487;52.266;10.542;2022-08-21T15:22:56;3.92;;;1.65;;
64959;SDS011;51487;52.266;10.542;2022-08-21T15:25:21;5.18;;;1.38;;
64959;SDS011;51487;52.266;10.542;2022-08-21T15:27:47;4.47;;;1.30;;
64959;SDS011;51487;52.266;10.542;2022-08-21T15:30:13;3.10;;;1.30;;
64959;SDS011;51487;52.266;10.542;2022-08-21T15:32:39;5.13;;;1.85;;
64959;SDS011;51487;52.266;10.542;2022-08-21T15:35:06;4.60;;;1.35;;
64959;SDS011;51487;52.266;10.542;2022-08-21T15:37:34;3.22;;;1.38;;
64959;SDS011;51487;52.266;10.542;2022-08-21T15:39:59;4.90;;;1.60;;
64959;SDS011;51487;52.266;10.542;2022-08-21T15:42:25;3.75;;;1.70;;
64959;SDS011;51487;52.266;10.542;2022-08-21T15:44:52;4.60;;;1.65;;
64959;SDS011;51487;52.266;10.542;2022-08-21T15:47:34;3.28;;;1.40;;
64959;SDS011;51487;52.266;10.542;2022-08-21T15:50:03;3.87;;;1.80;;
64959;SDS011;51487;52.266;10.542;2022-08-21T15:52:32;3.60;;;1.42;;
64959;SDS011;51487;52.266;10.542;2022-08-21T15:54:59;3.17;;;1.42;;
64959;SDS011;51487;52.266;10.542;2022-08-21T15:57:25;1.95;;;1.30;;
64959;SDS011;51487;52.266;10.542;2022-08-21T16:00:04;5.53;;;1.70;;
64959;SDS011;51487;52.266;10.542;2022-08-21T16:02:42;3.08;;;1.45;;
64959;SDS011;51487;52.266;10.542;2022-08-21T16:05:12;5.53;;;1.60;;
64959;SDS011;51487;52.266;10.542;2022-08-21T16:07:41;3.65;;;1.70;;
64959;SDS011;51487;52.266;10.542;2022-08-21T16:10:09;2.83;;;1.48;;
64959;SDS011;51487;52.266;10.542;2022-08-21T16:12:37;3.97;;;1.63;;
64959;SDS011;51487;52.266;10.542;2022-08-21T16:15:10;4.07;;;1.63;;
64959;SDS011;51487;52.266;10.542;2022-08-21T16:17:38;4.15;;;1.42;;
64959;SDS011;51487;52.266;10.542;2022-08-21T16:20:10;3.28;;;1.23;;
64959;SDS011;51487;52.266;10.542;2022-08-21T16:22:38;3.28;;;1.40;;
64959;SDS011;51487;52.266;10.542;2022-08-21T16:25:04;4.70;;;1.58;;
64959;SDS011;51487;52.266;10.542;2022-08-21T16:27:31;5.57;;;1.77;;
64959;SDS011;51487;52.266;10.542;2022-08-21T16:29:58;3.50;;;1.40;;
64959;SDS011;51487;52.266;10.542;2022-08-21T16:32:24;3.47;;;1.70;;
64959;SDS011;51487;52.266;10.542;2022-08-21T16:34:50;4.53;;;2.00;;
64959;SDS011;51487;52.266;10.542;2022-08-21T16:37:16;4.65;;;1.65;;
64959;SDS011;51487;52.266;10.542;2022-08-21T16:39:43;2.97;;;1.45;;
64959;SDS011;51487;52.266;10.542;2022-08-21T16:42:14;5.07;;;1.95;;
64959;SDS011;51487;52.266;10.542;2022-08-21T16:44:45;12.95;;;1.98;;
64959;SDS011;51487;52.266;10.542;2022-08-21T16:47:11;3.53;;;1.60;;